createdAt,value
2019-05-11T00:01:19.797Z,21.23
2019-05-11T00:03:49.925Z,20.00
2019-05-11T00:06:20.024Z,20.80
2019-05-11T00:08:50.116Z,20.20
2019-05-11T00:11:21.785Z,21.33
2019-05-11T00:13:51.920Z,20.07
2019-05-11T00:16:22.097Z,22.50
2019-05-11T00:18:52.250Z,21.67
2019-05-11T00:21:24.073Z,21.27
2019-05-11T00:23:54.259Z,21.40
2019-05-11T00:26:24.341Z,20.40
2019-05-11T00:28:54.490Z,21.47
2019-05-11T00:31:24.552Z,20.40
2019-05-11T00:33:54.719Z,20.03
2019-05-11T00:36:24.821Z,20.17
2019-05-11T00:38:54.965Z,21.60
2019-05-11T00:41:27.330Z,21.17
2019-05-11T00:43:57.468Z,20.73
2019-05-11T00:46:27.661Z,21.97
2019-05-11T00:48:57.795Z,21.20
2019-05-11T00:51:27.865Z,20.13
2019-05-11T00:53:58.028Z,22.50
2019-05-11T00:56:28.090Z,21.97
2019-05-11T00:58:58.169Z,19.97
2019-05-11T01:01:28.278Z,20.50
2019-05-11T01:03:58.405Z,20.83
2019-05-11T01:06:28.589Z,21.77
2019-05-11T01:08:58.716Z,21.00
2019-05-11T01:11:28.876Z,21.30
2019-05-11T01:13:59.224Z,21.50
2019-05-11T01:16:29.375Z,21.80
2019-05-11T01:18:59.643Z,21.63
2019-05-11T01:21:29.819Z,22.67
2019-05-11T01:23:59.898Z,21.83
2019-05-11T01:26:30.212Z,23.07
2019-05-11T01:29:03.411Z,23.10
2019-05-11T01:31:33.580Z,25.23
2019-05-11T01:34:03.649Z,23.57
2019-05-11T01:36:33.799Z,22.97
2019-05-11T01:39:05.816Z,23.90
2019-05-11T01:41:35.912Z,23.23
2019-05-11T01:44:07.819Z,24.03
2019-05-11T01:46:37.921Z,24.20
2019-05-11T01:49:07.989Z,25.83
2019-05-11T01:51:39.233Z,24.80
2019-05-11T01:54:09.291Z,25.40
2019-05-11T01:56:39.449Z,25.90
2019-05-11T01:59:09.557Z,25.40
2019-05-11T02:01:39.704Z,25.77
2019-05-11T02:04:09.764Z,25.77
2019-05-11T02:06:39.779Z,25.93
2019-05-11T02:09:09.813Z,26.00
2019-05-11T02:11:39.877Z,24.23
2019-05-11T02:14:10.434Z,26.30
2019-05-11T02:16:40.522Z,25.97
2019-05-11T02:19:11.481Z,26.03
2019-05-11T02:21:41.615Z,25.90
2019-05-11T02:24:13.866Z,25.57
2019-05-11T02:26:43.896Z,26.17
2019-05-11T02:29:13.929Z,27.33
2019-05-11T02:31:44.038Z,26.93
2019-05-11T02:34:14.104Z,24.53
2019-05-11T02:36:44.261Z,25.73
2019-05-11T02:39:14.370Z,25.23
2019-05-11T02:41:44.481Z,25.27
2019-05-11T02:44:14.581Z,27.27
2019-05-11T02:46:44.642Z,26.00
2019-05-11T02:49:14.762Z,28.53
2019-05-11T02:51:44.821Z,26.60
2019-05-11T02:54:14.934Z,26.70
2019-05-11T02:56:45.106Z,26.00
2019-05-11T02:59:16.831Z,26.27
2019-05-11T03:01:46.938Z,26.93
2019-05-11T03:04:19.554Z,25.87
2019-05-11T03:06:49.798Z,25.37
2019-05-11T03:09:19.964Z,26.73
2019-05-11T03:11:55.887Z,25.37
2019-05-11T03:14:21.844Z,27.10
2019-05-11T03:17:09.999Z,27.63
2019-05-11T03:19:40.083Z,27.07
2019-05-11T03:22:10.133Z,28.17
2019-05-11T03:24:40.208Z,28.40
2019-05-11T03:27:10.318Z,26.20
2019-05-11T03:29:45.331Z,26.67
2019-05-11T03:32:15.466Z,27.33
2019-05-11T03:34:45.618Z,29.17
2019-05-11T03:37:15.827Z,27.40
2019-05-11T03:39:45.879Z,26.63
2019-05-11T03:42:15.983Z,26.83
2019-05-11T03:44:46.148Z,28.77
2019-05-11T03:47:18.136Z,26.43
2019-05-11T03:49:48.193Z,27.57
2019-05-11T03:52:18.470Z,25.37
2019-05-11T03:54:50.314Z,26.03
2019-05-11T03:57:20.630Z,29.00
2019-05-11T03:59:50.725Z,29.23
2019-05-11T04:02:20.813Z,30.27
2019-05-11T04:04:52.276Z,29.50
2019-05-11T04:07:22.324Z,30.13
2019-05-11T04:09:52.519Z,30.63
2019-05-11T04:12:34.041Z,32.50
2019-05-11T04:14:56.591Z,31.57
2019-05-11T04:17:26.716Z,32.37
2019-05-11T04:19:56.770Z,32.60
2019-05-11T04:22:28.794Z,33.70
2019-05-11T04:24:58.877Z,33.13
2019-05-11T04:27:28.919Z,33.93
2019-05-11T04:29:58.998Z,36.57
2019-05-11T04:32:29.116Z,39.83
2019-05-11T04:34:59.267Z,35.67
2019-05-11T04:37:29.444Z,37.63
2019-05-11T04:40:00.509Z,39.77
2019-05-11T04:42:30.886Z,40.53
2019-05-11T04:45:01.014Z,39.27
2019-05-11T04:47:31.118Z,39.97
2019-05-11T04:50:01.279Z,38.97
2019-05-11T04:52:43.074Z,38.30
2019-05-11T04:55:13.428Z,37.67
2019-05-11T04:57:43.531Z,37.87
2019-05-11T05:00:14.160Z,35.13
2019-05-11T05:02:44.192Z,37.80
2019-05-11T05:05:14.405Z,36.87
2019-05-11T05:07:48.997Z,38.87
2019-05-11T05:10:19.947Z,36.77
2019-05-11T05:12:51.648Z,36.53
2019-05-11T05:15:19.930Z,38.13
2019-05-11T05:17:50.108Z,37.73
2019-05-11T05:20:20.166Z,38.03
2019-05-11T05:22:50.236Z,35.50
2019-05-11T05:25:22.879Z,36.90
2019-05-11T05:27:52.182Z,38.23
2019-05-11T05:30:22.272Z,37.77
2019-05-11T05:32:52.300Z,35.33
2019-05-11T05:35:22.384Z,36.37
2019-05-11T05:37:52.416Z,38.97
2019-05-11T05:40:22.515Z,37.43
2019-05-11T05:42:52.557Z,37.67
2019-05-11T05:45:22.675Z,39.80
2019-05-11T05:47:52.724Z,41.63
2019-05-11T05:50:22.765Z,38.90
2019-05-11T05:52:52.949Z,40.73
2019-05-11T05:55:23.113Z,42.10
2019-05-11T05:57:53.153Z,39.77
2019-05-11T06:00:23.456Z,41.93
2019-05-11T06:02:53.607Z,40.17
2019-05-11T06:05:23.675Z,38.90
2019-05-11T06:07:53.849Z,43.17
2019-05-11T06:10:24.164Z,44.17
2019-05-11T06:12:54.244Z,37.40
2019-05-11T06:15:24.485Z,44.10
2019-05-11T06:17:54.705Z,42.40
2019-05-11T06:20:24.855Z,45.50
2019-05-11T06:22:54.942Z,44.50
2019-05-11T06:25:25.074Z,46.13
2019-05-11T06:27:55.272Z,44.57
2019-05-11T06:30:25.646Z,45.37
2019-05-11T06:32:55.969Z,49.50
2019-05-11T06:35:26.046Z,46.90
2019-05-11T06:37:56.339Z,46.10
2019-05-11T06:40:29.877Z,42.87
2019-05-11T06:43:00.112Z,47.93
2019-05-11T06:45:30.388Z,45.57
2019-05-11T06:48:00.443Z,45.60
2019-05-11T06:50:30.529Z,44.63
2019-05-11T06:53:00.646Z,47.93
2019-05-11T06:55:30.837Z,46.07
2019-05-11T06:58:04.652Z,44.47
2019-05-11T07:00:34.833Z,46.83
2019-05-11T07:03:05.385Z,44.53
2019-05-11T07:05:35.549Z,45.30
2019-05-11T07:08:05.667Z,44.87
2019-05-11T07:10:35.799Z,44.97
2019-05-11T07:13:06.022Z,49.03
2019-05-11T07:15:36.138Z,45.23
2019-05-11T07:18:06.279Z,46.07
2019-05-11T07:20:49.943Z,44.40
2019-05-11T07:23:10.560Z,43.97
2019-05-11T07:25:40.786Z,43.83
2019-05-11T07:28:11.009Z,43.47
2019-05-11T07:30:41.257Z,43.50
2019-05-11T07:33:12.258Z,42.77
2019-05-11T07:35:43.190Z,44.33
2019-05-11T07:38:13.358Z,40.17
2019-05-11T07:40:43.510Z,41.97
2019-05-11T07:43:13.557Z,37.30
2019-05-11T07:45:43.680Z,33.03
2019-05-11T07:48:13.781Z,34.67
2019-05-11T07:50:43.946Z,30.33
2019-05-11T07:53:14.073Z,30.10
2019-05-11T07:55:44.215Z,30.63
2019-05-11T07:58:14.360Z,28.00
2019-05-11T08:00:44.637Z,28.13
2019-05-11T08:03:14.955Z,31.20
2019-05-11T08:05:45.040Z,28.77
2019-05-11T08:08:15.295Z,29.47
2019-05-11T08:10:45.462Z,27.17
2019-05-11T08:13:18.309Z,27.60
2019-05-11T08:15:48.939Z,25.00
2019-05-11T08:18:19.846Z,26.37
2019-05-11T08:20:50.092Z,24.97
2019-05-11T08:23:20.348Z,23.23
2019-05-11T08:25:50.489Z,24.10
2019-05-11T08:28:20.636Z,23.27
2019-05-11T08:30:50.770Z,24.47
2019-05-11T08:33:21.101Z,23.10
2019-05-11T08:35:51.244Z,22.43
2019-05-11T08:38:21.348Z,24.50
2019-05-11T08:40:51.639Z,21.67
2019-05-11T08:43:21.769Z,21.97
2019-05-11T08:45:52.383Z,20.27
2019-05-11T08:48:24.106Z,21.37
2019-05-11T08:50:54.241Z,19.17
2019-05-11T08:53:24.274Z,18.33
2019-05-11T08:55:54.381Z,17.37
2019-05-11T08:58:24.442Z,16.33
2019-05-11T09:00:54.523Z,16.90
2019-05-11T09:03:24.595Z,16.93
2019-05-11T09:05:55.147Z,17.47
2019-05-11T09:08:25.373Z,18.40
2019-05-11T09:10:58.033Z,16.47
2019-05-11T09:13:30.576Z,15.97
2019-05-11T09:16:00.660Z,16.83
2019-05-11T09:18:30.753Z,16.77
2019-05-11T09:21:00.910Z,16.83
2019-05-11T09:23:37.271Z,16.20
2019-05-11T09:26:03.166Z,16.77
2019-05-11T09:28:33.266Z,15.60
2019-05-11T09:31:03.937Z,15.27
2019-05-11T09:33:33.986Z,15.27
2019-05-11T09:36:04.791Z,15.10
2019-05-11T09:38:34.893Z,14.53
2019-05-11T09:41:08.971Z,13.03
2019-05-11T09:43:41.334Z,14.73
2019-05-11T09:46:11.439Z,13.40
2019-05-11T09:48:41.716Z,11.23
2019-05-11T09:51:13.269Z,12.30
2019-05-11T09:53:43.319Z,11.67
2019-05-11T09:56:18.556Z,11.57
2019-05-11T09:58:48.775Z,11.13
2019-05-11T10:01:18.860Z,11.60
2019-05-11T10:03:48.972Z,9.70
2019-05-11T10:06:19.291Z,10.90
2019-05-11T10:08:49.594Z,9.77
2019-05-11T10:11:19.797Z,9.40
2019-05-11T10:16:30.613Z,10.43
2019-05-11T10:19:01.270Z,9.77
2019-05-11T10:21:31.402Z,9.93
2019-05-11T10:24:01.448Z,12.17
2019-05-11T10:26:31.528Z,9.60
2019-05-11T10:29:01.696Z,7.53
2019-05-11T10:31:33.964Z,8.93
2019-05-11T10:34:04.844Z,9.30
2019-05-11T10:36:39.062Z,9.30
2019-05-11T10:39:09.812Z,9.90
2019-05-11T10:41:39.871Z,10.37
2019-05-11T10:44:09.885Z,10.03
2019-05-11T10:46:39.938Z,9.23
2019-05-11T10:49:09.969Z,9.47
2019-05-11T10:51:40.425Z,11.03
2019-05-11T10:54:10.796Z,9.40
2019-05-11T10:56:42.005Z,10.77
2019-05-11T10:59:15.504Z,8.60
2019-05-11T11:01:44.089Z,10.27
2019-05-11T11:04:14.651Z,8.60
2019-05-11T11:06:44.903Z,9.07
2019-05-11T11:09:17.794Z,10.03
2019-05-11T11:11:48.817Z,9.23
2019-05-11T11:14:19.254Z,7.60
2019-05-11T11:16:49.548Z,9.40
2019-05-11T11:19:22.033Z,7.73
2019-05-11T11:21:52.248Z,9.07
2019-05-11T11:24:25.118Z,8.40
2019-05-11T11:26:57.480Z,7.53
2019-05-11T11:29:30.031Z,10.67
2019-05-11T11:32:00.271Z,7.40
2019-05-11T11:34:30.477Z,7.73
2019-05-11T11:37:00.625Z,6.50
2019-05-11T11:39:30.759Z,6.43
2019-05-11T11:42:00.988Z,6.37
2019-05-11T11:44:31.033Z,6.03
2019-05-11T11:47:01.163Z,6.47
2019-05-11T11:49:31.253Z,6.00
2019-05-11T11:52:01.306Z,6.37
2019-05-11T11:54:31.562Z,5.67
2019-05-11T11:57:01.677Z,6.60
2019-05-11T11:59:31.969Z,6.03
2019-05-11T12:02:02.094Z,6.50
2019-05-11T12:04:32.262Z,6.70
2019-05-11T12:07:02.335Z,7.07
2019-05-11T12:09:32.590Z,5.60
2019-05-11T12:12:02.771Z,5.57
2019-05-11T12:14:32.875Z,4.40
2019-05-11T12:17:07.717Z,5.07
2019-05-11T12:19:34.742Z,6.80
2019-05-11T12:22:04.895Z,5.83
2019-05-11T12:24:35.072Z,5.07
2019-05-11T12:27:07.728Z,6.13
2019-05-11T12:29:38.544Z,5.20
2019-05-11T12:32:12.725Z,5.37
2019-05-11T12:34:42.936Z,7.50
2019-05-11T12:37:15.017Z,4.73
2019-05-11T12:39:45.281Z,3.83
2019-05-11T12:42:17.786Z,4.83
2019-05-11T12:44:48.323Z,3.77
2019-05-11T12:47:24.174Z,3.53
2019-05-11T12:49:51.502Z,4.67
2019-05-11T12:52:27.883Z,4.57
2019-05-11T12:54:58.367Z,4.23
2019-05-11T12:57:28.597Z,4.03
2019-05-11T12:59:58.779Z,3.67
2019-05-11T13:02:28.931Z,4.33
2019-05-11T13:04:58.998Z,3.40
2019-05-11T13:07:29.073Z,5.80
2019-05-11T13:09:59.329Z,5.60
2019-05-11T13:12:29.788Z,5.00
2019-05-11T13:14:59.851Z,5.40
2019-05-11T13:17:37.402Z,5.43
2019-05-11T13:20:01.813Z,4.87
2019-05-11T13:22:31.961Z,4.00
2019-05-11T13:25:02.144Z,4.40
2019-05-11T13:27:33.846Z,4.97
2019-05-11T13:30:07.970Z,4.93
2019-05-11T13:32:38.565Z,4.10
2019-05-11T13:35:12.639Z,5.47
2019-05-11T13:37:42.881Z,6.03
2019-05-11T13:40:13.168Z,5.13
2019-05-11T13:42:43.240Z,5.30
2019-05-11T13:45:13.388Z,4.53
2019-05-11T13:47:52.541Z,5.53
2019-05-11T13:50:17.862Z,5.83
2019-05-11T13:53:07.774Z,4.63
2019-05-11T13:55:41.662Z,4.63
2019-05-11T13:58:11.809Z,4.30
2019-05-11T14:00:41.876Z,3.50
2019-05-11T14:03:12.570Z,3.83
2019-05-11T14:05:42.632Z,4.87
2019-05-11T14:08:12.785Z,4.07
2019-05-11T14:10:42.946Z,4.63
2019-05-11T14:13:13.130Z,3.37
2019-05-11T14:15:43.256Z,3.10
2019-05-11T14:18:13.836Z,3.93
2019-05-11T14:20:45.172Z,3.93
2019-05-11T14:23:15.505Z,3.67
2019-05-11T14:26:08.333Z,4.23
2019-05-11T14:28:41.507Z,5.17
2019-05-11T14:31:11.647Z,4.13
2019-05-11T14:33:42.109Z,5.43
2019-05-11T14:36:12.190Z,5.20
2019-05-11T14:38:42.377Z,4.20
2019-05-11T14:41:12.504Z,4.83
2019-05-11T14:43:44.056Z,4.40
2019-05-11T14:46:14.160Z,4.47
2019-05-11T14:48:48.156Z,4.17
2019-05-11T14:51:18.583Z,3.83
2019-05-11T14:53:48.635Z,4.63
2019-05-11T14:56:19.141Z,5.87
2019-05-11T14:58:55.114Z,4.37
2019-05-11T15:01:25.873Z,4.90
2019-05-11T15:03:55.960Z,4.90
2019-05-11T15:06:27.909Z,4.67
2019-05-11T15:09:01.146Z,5.57
2019-05-11T15:11:33.087Z,6.00
2019-05-11T15:14:03.350Z,5.00
2019-05-11T15:16:34.057Z,5.03
2019-05-11T15:19:04.278Z,5.97
2019-05-11T15:21:34.702Z,4.97
2019-05-11T15:24:04.914Z,5.77
2019-05-11T15:26:35.030Z,7.70
2019-05-11T15:29:08.109Z,6.97
2019-05-11T15:31:38.425Z,7.10
2019-05-11T15:34:08.818Z,5.63
2019-05-11T15:36:38.955Z,5.50
2019-05-11T15:39:09.188Z,4.43
2019-05-11T15:41:39.348Z,6.57
2019-05-11T15:44:11.940Z,5.20
2019-05-11T15:46:42.984Z,4.47
2019-05-11T15:49:13.247Z,6.23
2019-05-11T15:51:43.473Z,4.87
2019-05-11T15:54:13.539Z,6.37
2019-05-11T15:56:44.271Z,6.80
2019-05-11T15:59:16.147Z,4.83
2019-05-11T16:01:48.772Z,5.83
2019-05-11T16:04:21.186Z,5.87
2019-05-11T16:06:51.917Z,5.10
2019-05-11T16:09:21.996Z,5.77
2019-05-11T16:11:52.430Z,6.40
2019-05-11T16:14:23.623Z,5.47
2019-05-11T16:16:53.763Z,4.83
2019-05-11T16:19:24.001Z,6.33
2019-05-11T16:21:54.600Z,3.80
2019-05-11T16:24:24.838Z,6.57
2019-05-11T16:26:54.906Z,5.33
2019-05-11T16:29:25.131Z,5.97
2019-05-11T16:31:57.829Z,4.97
2019-05-11T16:34:27.902Z,5.40
2019-05-11T16:37:01.148Z,7.10
2019-05-11T16:39:31.218Z,8.10
2019-05-11T16:42:02.507Z,6.93
2019-05-11T16:44:32.556Z,8.57
2019-05-11T16:47:02.647Z,5.73
2019-05-11T16:49:32.758Z,8.40
2019-05-11T16:52:07.841Z,7.50
2019-05-11T16:54:38.754Z,7.30
2019-05-11T16:57:08.753Z,6.23
2019-05-11T16:59:39.914Z,6.67
2019-05-11T17:02:10.809Z,6.93
2019-05-11T17:04:41.268Z,5.37
2019-05-11T17:07:11.398Z,4.70
2019-05-11T17:09:41.469Z,9.13
2019-05-11T17:12:11.511Z,6.03
2019-05-11T17:15:00.232Z,6.53
2019-05-11T17:17:30.398Z,8.47
2019-05-11T17:20:00.484Z,8.57
2019-05-11T17:22:30.661Z,6.30
2019-05-11T17:25:00.939Z,7.67
2019-05-11T17:27:31.062Z,7.07
2019-05-11T17:30:01.229Z,6.57
2019-05-11T17:32:31.318Z,7.07
2019-05-11T17:35:01.476Z,9.83
2019-05-11T17:37:31.643Z,7.67
2019-05-11T17:40:02.161Z,6.63
2019-05-11T17:42:33.451Z,7.50
2019-05-11T17:45:03.632Z,6.73
2019-05-11T17:47:33.850Z,6.00
2019-05-11T17:50:04.322Z,6.80
2019-05-11T17:52:34.466Z,7.03
2019-05-11T17:55:04.760Z,4.67
2019-05-11T17:57:34.819Z,6.20
2019-05-11T18:00:06.050Z,5.80
2019-05-11T18:02:38.719Z,8.03
2019-05-11T18:05:09.020Z,5.37
2019-05-11T18:07:39.505Z,6.50
2019-05-11T18:10:10.065Z,7.10
2019-05-11T18:12:42.908Z,6.33
2019-05-11T18:15:13.140Z,5.23
2019-05-11T18:17:43.188Z,6.30
2019-05-11T18:20:17.523Z,4.30
2019-05-11T18:22:45.273Z,5.43
2019-05-11T18:25:18.013Z,5.73
2019-05-11T18:27:48.175Z,6.10
2019-05-11T18:30:19.017Z,5.13
2019-05-11T18:32:49.404Z,7.03
2019-05-11T18:35:20.365Z,6.77
2019-05-11T18:37:50.521Z,5.57
2019-05-11T18:40:20.706Z,5.73
2019-05-11T18:42:50.823Z,6.37
2019-05-11T18:45:20.931Z,5.30
2019-05-11T18:47:51.061Z,6.20
2019-05-11T18:50:30.571Z,8.70
2019-05-11T18:52:52.986Z,6.70
2019-05-11T18:55:23.168Z,8.40
2019-05-11T18:58:03.456Z,4.50
2019-05-11T19:00:33.612Z,5.23
2019-05-11T19:03:03.762Z,5.67
2019-05-11T19:05:38.428Z,5.07
2019-05-11T19:08:10.906Z,6.77
2019-05-11T19:10:43.991Z,6.13
2019-05-11T19:13:14.053Z,6.20
2019-05-11T19:15:44.547Z,5.00
2019-05-11T19:18:14.763Z,6.90
2019-05-11T19:20:47.048Z,5.97
2019-05-11T19:23:19.211Z,6.60
2019-05-11T19:25:48.950Z,5.50
2019-05-11T19:28:22.384Z,6.67
2019-05-11T19:30:52.655Z,5.23
2019-05-11T19:33:22.844Z,7.03
2019-05-11T19:35:53.025Z,5.90
2019-05-11T19:38:23.589Z,5.77
2019-05-11T19:40:53.864Z,6.63
2019-05-11T19:43:24.025Z,4.63
2019-05-11T19:45:54.260Z,7.07
2019-05-11T19:48:24.576Z,5.80
2019-05-11T19:51:04.645Z,6.00
2019-05-11T19:53:28.055Z,6.57
2019-05-11T19:55:58.592Z,6.33
2019-05-11T19:58:29.630Z,9.73
2019-05-11T20:00:59.873Z,7.13
2019-05-11T20:03:30.065Z,6.63
2019-05-11T20:06:02.381Z,8.70
2019-05-11T20:08:44.059Z,6.30
2019-05-11T20:11:16.016Z,5.63
2019-05-11T20:13:48.285Z,10.00
2019-05-11T20:16:18.812Z,7.43
2019-05-11T20:18:49.144Z,6.37
2019-05-11T20:21:22.763Z,5.83
2019-05-11T20:23:51.352Z,5.40
2019-05-11T20:26:21.973Z,7.37
2019-05-11T20:28:52.617Z,6.40
2019-05-11T20:31:22.996Z,10.07
2019-05-11T20:33:53.335Z,8.53
2019-05-11T20:36:23.739Z,13.30
2019-05-11T20:38:53.893Z,8.27
2019-05-11T20:41:24.148Z,10.43
2019-05-11T20:43:54.360Z,12.47
2019-05-11T20:46:27.807Z,9.97
2019-05-11T20:48:58.071Z,5.67
2019-05-11T20:51:36.564Z,5.17
2019-05-11T20:54:00.583Z,5.30
2019-05-11T20:56:30.776Z,6.87
2019-05-11T20:59:01.290Z,8.10
2019-05-11T21:01:31.428Z,5.90
2019-05-11T21:04:01.650Z,7.00
2019-05-11T21:06:32.879Z,9.40
2019-05-11T21:09:03.627Z,9.13
2019-05-11T21:11:33.888Z,6.63
2019-05-11T21:14:04.018Z,6.67
2019-05-11T21:16:34.321Z,6.47
2019-05-11T21:19:04.399Z,6.77
2019-05-11T21:21:46.372Z,5.23
2019-05-11T21:24:08.381Z,7.03
2019-05-11T21:26:38.594Z,6.50
2019-05-11T21:29:09.088Z,8.53
2019-05-11T21:31:40.760Z,6.00
2019-05-11T21:34:11.213Z,6.40
2019-05-11T21:36:41.464Z,6.53
2019-05-11T21:39:14.436Z,7.40
2019-05-11T21:41:44.554Z,5.57
2019-05-11T21:44:18.896Z,8.33
2019-05-11T21:46:49.147Z,6.90
2019-05-11T21:49:21.543Z,11.53
2019-05-11T21:52:03.650Z,9.13
2019-05-11T21:54:23.394Z,6.70
2019-05-11T21:56:53.538Z,6.60
2019-05-11T21:59:23.734Z,6.50
2019-05-11T22:01:53.973Z,7.23
2019-05-11T22:04:24.194Z,7.03
2019-05-11T22:06:58.601Z,5.47
2019-05-11T22:09:27.860Z,7.20
2019-05-11T22:11:58.181Z,7.97
2019-05-11T22:14:29.923Z,6.20
2019-05-11T22:17:02.455Z,6.87
2019-05-11T22:19:31.858Z,6.43
2019-05-11T22:22:01.981Z,6.03
2019-05-11T22:24:32.034Z,4.53
2019-05-11T22:27:02.096Z,7.87
2019-05-11T22:29:32.166Z,7.50
2019-05-11T22:32:02.218Z,7.00
2019-05-11T22:34:33.025Z,6.07
2019-05-11T22:37:03.103Z,6.73
2019-05-11T22:39:33.223Z,8.33
2019-05-11T22:42:03.297Z,8.00
2019-05-11T22:44:35.854Z,6.67
2019-05-11T22:47:05.327Z,7.30
2019-05-11T22:49:35.360Z,9.70
2019-05-11T22:52:05.434Z,5.27
2019-05-11T22:54:38.178Z,7.17
2019-05-11T22:57:08.124Z,6.67
2019-05-11T22:59:38.584Z,6.40
2019-05-11T23:02:10.793Z,8.20
2019-05-11T23:04:40.564Z,9.50
2019-05-11T23:07:11.777Z,7.97
2019-05-11T23:09:42.010Z,7.13
2019-05-11T23:12:12.051Z,6.27
2019-05-11T23:14:48.288Z,7.73
2019-05-11T23:17:18.484Z,6.70
2019-05-11T23:19:48.773Z,6.03
2019-05-11T23:22:21.423Z,6.83
2019-05-11T23:24:51.444Z,7.73
2019-05-11T23:27:21.508Z,6.97
2019-05-11T23:29:53.766Z,7.93
2019-05-11T23:32:24.034Z,7.43
2019-05-11T23:34:54.178Z,7.50
2019-05-11T23:37:27.842Z,8.43
2019-05-11T23:39:58.480Z,7.17
2019-05-11T23:42:30.809Z,7.37
2019-05-11T23:45:00.790Z,9.90
2019-05-11T23:47:32.164Z,6.50
2019-05-11T23:50:02.207Z,6.50
2019-05-11T23:52:32.342Z,9.13
2019-05-11T23:55:02.476Z,6.10
2019-05-11T23:57:33.287Z,7.47
